CheckWX is a tool to help pilots better visualize weather data.  It is not intended as a substitute for an official pre-flight weather briefing.

13:44:04 UTC

KTUS METAR
Tucson International Airport
Tucson, Arizona, USA
Current

51 mins ago

KTUS 251253Z 19003KT 10SM CLR 25/18 A3009 RMK AO2 SLP140 T02500178
Observed
Aug-25 @ 12:53 UTC
Wind
  • 190° at 3 KTS
Visibility
10 SM
Flight Rules
VFR
Cloud Levels
  • Clear skies
Temperature
25°C / 77°F
Dewpoint
18°C / 64°F
Humidity
65%
Altimeter
30.09" Hg
Pressure
1018.92 hPa
Previous

2 hours ago

KTUS 251153Z 18004KT 10SM CLR 25/18 A3008 RMK AO2 SLP135 T02500178 10283 20250 53006
Observed
Aug-25 @ 11:53 UTC
Wind
  • 180° at 4 KTS
Visibility
10 SM
Flight Rules
VFR
Cloud Levels
  • Clear skies
Temperature
25°C / 77°F
Dewpoint
18°C / 64°F
Humidity
65%
Altimeter
30.08" Hg
Pressure
1018.62 hPa
Previous

3 hours ago

KTUS 251053Z 17006KT 10SM CLR 26/18 A3007 RMK AO2 SLP131 T02560178
Observed
Aug-25 @ 10:53 UTC
Wind
  • 170° at 6 KTS
Visibility
10 SM
Flight Rules
VFR
Cloud Levels
  • Clear skies
Temperature
26°C / 79°F
Dewpoint
18°C / 64°F
Humidity
61%
Altimeter
30.07" Hg
Pressure
1018.32 hPa